Search for airport 
image banner adimage banner adimage banner ad
image banner ad

50CA - St Mary Medical Center

Located in Long Beach, United States

ICAO - 50CA, IATA -

Data provided by Airmate  

General information

Coordinates: N33°46'50" W118°11'9"
Elevation is 174 feet MSL.
Magnetic variation is 14° East
View others Airports in California

Operational data

Special qualification required
Current time UTC:
Current local time:
METAR: KLGB 292053Z 27010KT 10SM CLR 28/14 A2988 RMK AO2 SLP119 T02780144 58011
TAF: KLGB 291736Z 2918/3018 00000KT P6SM SKC FM291900 20008KT P6SM SKC FM300000 29008KT P6SM SKC FM300500 VRB03KT P6SM SKC FM301200 14005KT P6SM SKC
View NOTAMs / SUP AIP / TFR affecting this airport [VIEW]
Communications frequencies: [VIEW]

Runways:

Airport contact information

Address: Long Beach United States

Satellite view of 50CA